• Join FlightAware (Why Join?)
  • Login
  • US Flag 
09:32AM EDT


 

Airport Tracker/Info


-or-


 

Live Flight TrackerFlight Track Log ✈ UPS1219 ✈ 18-Jul-2013 ✈ KIAD - KSDF

Flight Track Log - Related Links

Times and Time Zones

All times are in EDT time to prevent confusion due to time zone crossing. See the UPS1219 flight status page for this flight to view local times or setup timezone preferences in your user account.

Time Position Orientation Groundspeed Altitude Reporting Facility
EDT Latitude Longitude Course Direction KTS MPH feet Rate Location/Type
10:55PM 38.9400 -77.5070 242° Southwest 170 196 1,900  Level FlightAware
10:55PM 38.9300 -77.5320 243° Southwest 215 247 2,700 2,040 Climbing FlightAware
10:56PM 38.9130 -77.5700 240° Southwest 268 308 3,800 3,000 Climbing FlightAware
10:56PM 38.9000 -77.6050 244° Southwest 273 314 5,500 4,020 Climbing FlightAware
10:57PM 38.8830 -77.6520 245° Southwest 284 327 7,500 3,960 Climbing FlightAware
10:57PM 38.8720 -77.6810 244° Southwest 288 331 8,800 3,720 Climbing FlightAware
10:57PM 38.8640 -77.7020 244° Southwest 293 337 9,700 1,800 Climbing FlightAware
10:58PM 38.8520 -77.7910 260° West 313 360 10,600 1,920 Climbing FlightAware
10:59PM 38.8540 -77.8830 272° West 391 450 12,500 3,060 Climbing FlightAware
10:59PM 38.8540 -77.9790 270° West 402 463 14,700 3,060 Climbing FlightAware
11:00PM 38.8540 -78.0840 270° West 415 478 16,800 2,820 Climbing FlightAware
11:01PM 38.8540 -78.1990 270° West 429 494 18,900 2,520 Climbing FlightAware
11:01PM 38.8530 -78.2980 269° West 441 507 20,400 2,460 Climbing FlightAware
11:02PM 38.8510 -78.3940 268° West 448 516 22,000 2,520 Climbing FlightAware
11:03PM 38.8500 -78.5010 269° West 457 526 23,600 2,280 Climbing FlightAware
11:03PM 38.8480 -78.6270 269° West 465 535 25,300 2,340 Climbing FlightAware
11:04PM 38.8470 -78.7150 269° West 462 532 26,700 2,520 Climbing FlightAware
11:05PM 38.8450 -78.8280 269° West 457 526 28,500 2,280 Climbing FlightAware
11:05PM 38.8430 -78.9350 269° West 456 525 29,900 1,020 Climbing FlightAware
11:06PM 38.8410 -79.0630 269° West 464 534 30,000 60 Climbing FlightAware
11:07PM 38.8390 -79.1610 269° West 457 526 30,000  Level FlightAware
11:07PM 38.8370 -79.2690 269° West 453 521 30,000  Level FlightAware
11:08PM 38.8350 -79.3850 269° West 453 521 30,000  Level FlightAware
11:09PM 38.8330 -79.4920 269° West 455 524 30,000  Level FlightAware
11:09PM 38.8310 -79.5940 269° West 456 525 30,000  Level FlightAware
11:10PM 38.8290 -79.6970 269° West 455 524 30,000  Level FlightAware
11:13PM 38.8170 -80.1110 268° West 454 522 30,000  Level FlightAware
11:14PM 38.8130 -80.3020 269° West 453 521 30,000  Level FlightAware
11:15PM 38.8100 -80.4130 268° West 451 519 30,000  Level FlightAware
11:15PM 38.8110 -80.5300 271° West 450 518 30,000  Level FlightAware
11:16PM 38.8180 -80.6310 275° West 450 518 30,000  Level FlightAware
11:17PM 38.8220 -80.7150 274° West 450 518 30,000  Level FlightAware
11:17PM 38.8280 -80.8260 274° West 450 518 30,000  Level FlightAware
11:18PM 38.8370 -80.9390 276° West 453 521 30,000  Level FlightAware
11:19PM 38.8470 -81.0860 275° West 454 522 30,000  Level FlightAware
11:19PM 38.8530 -81.1910 274° West 451 519 30,000  Level FlightAware
11:20PM 38.8610 -81.3100 275° West 450 518 30,000  Level FlightAware
11:21PM 38.8670 -81.4150 274° West 451 519 30,000  Level FlightAware
11:22PM 38.8740 -81.5350 274° West 450 518 30,000  Level FlightAware
11:22PM 38.8800 -81.6420 274° West 448 516 30,000  Level FlightAware
11:23PM 38.8860 -81.7530 274° West 446 513 30,000  Level FlightAware
11:24PM 38.8930 -81.8690 274° West 445 512 30,000  Level FlightAware
11:24PM 38.8990 -81.9730 274° West 445 512 30,000  Level FlightAware
11:25PM 38.9050 -82.0870 274° West 445 512 30,000  Level FlightAware
11:26PM 38.9110 -82.2010 274° West 444 511 30,000  Level FlightAware
11:26PM 38.9160 -82.2940 274° West 446 513 30,000  Level FlightAware
11:27PM 38.9210 -82.4020 273° West 446 513 30,000  Level FlightAware
11:28PM 38.9260 -82.5040 274° West 447 514 30,000  Level FlightAware
11:28PM 38.9320 -82.6210 274° West 446 513 30,000  Level FlightAware
11:29PM 38.9370 -82.7260 274° West 445 512 30,000  Level FlightAware
11:30PM 38.9430 -82.8380 274° West 444 511 30,000  Level FlightAware
11:31PM 38.9480 -82.9530 273° West 446 513 30,000  Level FlightAware
11:31PM 38.9530 -83.0580 274° West 448 516 30,000  Level FlightAware
11:32PM 38.9470 -83.1610 266° West 452 520 30,000  Level FlightAware
11:32PM 38.9370 -83.2690 263° West 466 536 30,000  Level FlightAware
11:33PM 38.9260 -83.3830 263° West 472 543 30,000  Level FlightAware
11:34PM 38.9150 -83.4960 263° West 470 541 30,000  Level FlightAware
11:34PM 38.9050 -83.5970 263° West 468 539 30,000  Level FlightAware
11:35PM 38.8930 -83.7230 263° West 469 540 30,000  Level FlightAware
11:36PM 38.8780 -83.8630 262° West 469 540 30,000  Level FlightAware
11:37PM 38.8690 -83.9480 262° West 469 540 30,000  Level FlightAware
11:38PM 38.8560 -84.0600 262° West 469 540 30,000  Level FlightAware
11:38PM 38.8470 -84.1450 262° West 469 540 30,000  Level FlightAware
11:39PM 38.8350 -84.2570 262° West 469 540 30,000 -4,020 Level FlightAware
11:41PM 38.8030 -84.5920 263° West 19,200 -5,340 Descending FlightAware
11:41PM 38.7900 -84.7290 263° West 437 503 16,600 -2,940 Descending FlightAware
11:42PM 38.7780 -84.8270 261° West 409 471 14,600 -1,920 Descending FlightAware
11:43PM 38.7610 -84.9360 259° West 397 457 13,800 -1,440 Descending FlightAware
11:44PM 38.7170 -84.9970 227° Southwest 397 457 12,600 -2,040 Descending FlightAware
11:44PM 38.6940 -85.0180 215° Southwest 383 441 12,100 -720 Descending FlightAware
11:45PM 38.6260 -85.0830 217° Southwest 383 441 11,800 -240 Descending FlightAware
11:46PM 38.5490 -85.1570 217° Southwest 383 441 11,700 -780 Descending FlightAware
11:46PM 38.4870 -85.2150 216° Southwest 375 432 10,600 -1,200 Descending FlightAware
11:47PM 38.4200 -85.3050 226° Southwest 372 428 9,900 -540 Descending FlightAware
11:48PM 38.3910 -85.3610 237° Southwest 373 429 9,900  Level FlightAware
11:48PM 38.3620 -85.4170 237° Southwest 373 429 9,900  Level FlightAware
11:48PM 38.3490 -85.4400 234° Southwest 373 429 9,900  Level FlightAware
11:49PM 38.3190 -85.5000 238° Southwest 372 428 9,900  Level FlightAware
11:49PM 38.2930 -85.5510 237° Southwest 371 427 9,900 -120 Level FlightAware
11:50PM 38.2690 -85.5990 238° Southwest 363 418 9,800  Descending FlightAware
11:50PM 38.2510 -85.6540 247° West 322 371 9,900  Climbing FlightAware
11:51PM 38.2460 -85.6840 258° West 308 354 9,800 -720 Descending FlightAware
11:51PM 38.2450 -85.7330 269° West 295 339 9,400 -1,200 Descending FlightAware
11:52PM 38.2440 -85.7810 268° West 290 334 8,700 -1,500 Descending FlightAware
11:52PM 38.2430 -85.8290 268° West 287 330 8,000 -1,620 Descending FlightAware
11:52PM 38.2310 -85.8720 250° West 281 323 7,200 -1,680 Descending FlightAware
11:53PM 38.2190 -85.8840 218° Southwest 280 322 6,900 -1,620 Descending FlightAware
11:53PM 38.1970 -85.8910 194° South 280 322 6,400 -1,500 Descending FlightAware
11:53PM 38.1600 -85.8750 161° South 277 319 5,700 -1,500 Descending FlightAware
11:54PM 38.1290 -85.8570 155° Southeast 263 303 5,000 -900 Descending FlightAware
11:54PM 38.1000 -85.8390 154° Southeast 237 273 4,900 -120 Descending FlightAware
11:55PM 38.0770 -85.8260 156° South 212 244 4,900  Level FlightAware
11:55PM 38.0540 -85.8110 153° Southeast 208 239 4,900 -360 Level FlightAware
11:56PM 38.0280 -85.7960 156° South 210 242 4,600 -780 Descending FlightAware
11:56PM 38.0170 -85.7890 153° Southeast 208 239 4,400 -900 Descending FlightAware
11:56PM 37.9920 -85.7790 163° South 201 231 4,000 -540 Descending FlightAware
11:57PM 37.9670 -85.7710 166° South 202 232 3,900 -180 Descending FlightAware
11:57PM 37.9510 -85.7650 164° South 203 234 3,900  Level FlightAware
11:58PM 37.9240 -85.7540 162° South 205 236 3,900  Level FlightAware
11:58PM 37.9160 -85.7390 124° Southeast 209 241 3,900  Level FlightAware
11:58PM 37.9160 -85.7240 90° East 211 243 3,900  Level FlightAware
11:58PM 37.9220 -85.7060 67° East 212 244 3,900  Level FlightAware
11:59PM 37.9320 -85.6980 32° Northeast 213 245 3,900 -180 Level FlightAware
11:59PM 37.9590 -85.6880 16° North 208 239 3,800 -240 Descending FlightAware
11:59PM 37.9810 -85.6820 12° North 204 235 3,700 -600 Descending FlightAware
12:00AM 37.9970 -85.6860 349° North 203 234 3,400 -1,140 Descending FlightAware
12:00AM 38.0190 -85.6940 344° North 205 236 2,900 -1,020 Descending FlightAware
12:01AM 38.0460 -85.7020 347° North 180 207 2,500 -840 Descending FlightAware
12:01AM 38.0680 -85.7100 344° North 162 186 2,100 -900 Descending FlightAware
12:02AM 38.0870 -85.7160 346° North 144 166 1,700 -780 Descending FlightAware
12:02AM 38.1000 -85.7200 346° North 139 160 1,500 -660 Descending FlightAware
12:02AM 38.1180 -85.7260 345° North 142 163 1,200 -780 Descending FlightAware
12:03AM 38.1350 -85.7320 344° North 141 162 800 -840 Descending FlightAware
12:03AM 38.1510 -85.7370 346° North 139 160 500 -720 Descending FlightAware
12:04AM 38.1570 -85.7390 345° North 139 160 400 -600 Descending FlightAware
12:04AM 38.1740 -85.7450 344° North 38 44 -660 Descending FlightAware
12:05AM 38.1750 -85.7420 67° East 17 20  Level FlightAware
12:06AM 38.1730 -85.7420 180° South 16 18  Level FlightAware
12:06AM 38.1710 -85.7400 142° Southeast 14 16  Level FlightAware
12:07AM 38.1710 -85.7390 90° East 18 21  Level FlightAware